Time;durP1;ratioP1;P1;durP2;ratioP2;P2;SDS_P1;SDS_P2;PMS_P1;PMS_P2;Temp;Humidity;BMP_temperature;BMP_pressure;BME280_temperature;BME280_humidity;BME280_pressure;Samples;Min_cycle;Max_cycle;Signal;HPM_P1;HPM_P2
2021/06/16 00:01:49;;;;;;;4.65;3.85;;;;;;;16.18;78.86;97516.94;1710379;81;20992;-86
2021/06/16 00:04:16;;;;;;;5.50;4.58;;;;;;;16.19;78.03;97528.51;1709999;81;21132;-87
2021/06/16 00:06:42;;;;;;;7.60;4.45;;;;;;;16.18;77.61;97532.11;1710577;81;21056;-85
2021/06/16 00:09:09;;;;;;;7.10;5.35;;;;;;;16.14;77.50;97534.11;1710432;81;21299;-87
2021/06/16 00:11:36;;;;;;;6.62;4.67;;;;;;;16.04;77.55;97527.59;1710481;83;21067;-86
2021/06/16 00:14:04;;;;;;;5.25;4.40;;;;;;;15.94;80.47;97529.94;1710363;81;21075;-86
2021/06/16 00:16:30;;;;;;;6.83;5.10;;;;;;;15.84;80.74;97529.14;1710335;83;21044;-87
2021/06/16 00:18:57;;;;;;;7.37;5.03;;;;;;;15.79;78.83;97521.00;1685580;81;21116;-86
2021/06/16 00:21:23;;;;;;;7.12;4.65;;;;;;;15.73;78.76;97532.05;1685040;82;21080;-86
2021/06/16 00:23:50;;;;;;;5.58;4.83;;;;;;;15.70;78.26;97530.42;1685414;82;21048;-86
2021/06/16 00:26:16;;;;;;;5.42;4.75;;;;;;;15.65;78.11;97532.50;1683612;85;21065;-86
2021/06/16 00:28:43;;;;;;;6.53;5.20;;;;;;;15.57;78.27;97527.11;1682826;85;21025;-86
2021/06/16 00:31:11;;;;;;;9.13;4.95;;;;;;;15.52;78.39;97525.19;1683042;85;21431;-86
2021/06/16 00:33:37;;;;;;;10.00;5.55;;;;;;;15.44;78.46;97520.74;1682912;85;21029;-87
2021/06/16 00:36:07;;;;;;;5.97;5.37;;;;;;;15.38;78.56;97515.30;1682846;85;21053;-87
2021/06/16 00:38:34;;;;;;;7.20;5.20;;;;;;;15.34;78.35;97514.21;1682084;85;20993;-87
2021/06/16 00:41:00;;;;;;;7.55;5.35;;;;;;;15.27;78.74;97514.56;1682927;85;21495;-87
2021/06/16 00:43:27;;;;;;;6.33;5.10;;;;;;;15.18;78.69;97506.61;1682702;85;21061;-87
2021/06/16 00:45:54;;;;;;;5.75;4.72;;;;;;;15.15;78.75;97509.44;1682885;85;21044;-87
2021/06/16 00:48:20;;;;;;;9.18;5.40;;;;;;;15.07;79.02;97513.01;1682741;85;21467;-87
2021/06/16 00:50:47;;;;;;;7.10;5.50;;;;;;;15.03;79.73;97512.81;1682738;85;20993;-87
2021/06/16 00:53:15;;;;;;;7.58;5.33;;;;;;;14.99;79.73;97504.59;1682781;85;21045;-87
2021/06/16 00:55:42;;;;;;;6.67;5.30;;;;;;;14.94;79.98;97502.16;1682679;85;21137;-87
2021/06/16 00:58:12;;;;;;;10.10;5.62;;;;;;;14.89;80.82;97499.76;1673406;85;21037;-87
2021/06/16 01:00:50;;;;;;;7.00;5.33;;;;;;;14.87;80.06;97509.63;1670577;85;21001;-87
2021/06/16 01:03:29;;;;;;;7.20;5.80;;;;;;;14.84;80.59;97516.49;1669213;86;21045;-87
2021/06/16 01:06:09;;;;;;;7.97;5.37;;;;;;;14.81;80.20;97513.98;1669232;86;20982;-87
2021/06/16 01:08:41;;;;;;;8.33;5.60;;;;;;;14.74;80.42;97514.75;1669002;85;21392;-87
2021/06/16 01:11:10;;;;;;;5.75;5.22;;;;;;;14.70;80.44;97513.69;1681561;85;21029;-87
2021/06/16 01:13:53;;;;;;;7.20;5.25;;;;;;;14.67;80.60;97513.84;1682827;85;21451;-87
2021/06/16 01:16:50;;;;;;;7.50;5.70;;;;;;;14.66;80.65;97515.66;1670983;85;21008;-87
2021/06/16 01:19:53;;;;;;;5.70;4.97;;;;;;;14.63;81.18;97510.48;1681374;85;21025;-87
2021/06/16 01:23:05;;;;;;;6.22;4.78;;;;;;;14.60;81.37;97520.84;1682163;84;21024;-88
2021/06/16 01:26:04;;;;;;;6.12;5.05;;;;;;;14.56;81.30;97511.28;1708654;82;21501;-87
2021/06/16 01:28:39;;;;;;;6.17;4.60;;;;;;;14.53;82.56;97511.44;1731008;83;21044;-86
2021/06/16 01:31:06;;;;;;;6.85;4.92;;;;;;;14.54;82.22;97511.84;1730399;82;21025;-87
2021/06/16 01:33:35;;;;;;;7.75;5.47;;;;;;;14.55;82.67;97504.23;1695061;85;21044;-87
2021/06/16 01:36:03;;;;;;;6.40;5.05;;;;;;;14.53;82.62;97499.44;1730969;82;20971;-86
2021/06/16 01:38:31;;;;;;;5.87;4.70;;;;;;;14.50;82.70;97501.80;1730953;83;21435;-87
2021/06/16 01:41:00;;;;;;;5.40;4.67;;;;;;;14.51;82.83;97504.88;1730867;82;20982;-87
2021/06/16 01:43:29;;;;;;;6.85;5.05;;;;;;;14.51;82.73;97502.21;1731049;83;21030;-87
2021/06/16 01:46:00;;;;;;;5.78;4.25;;;;;;;14.50;83.09;97509.80;1694878;85;21060;-86
2021/06/16 01:48:29;;;;;;;7.25;4.45;;;;;;;14.54;82.93;97504.30;1731031;82;20992;-87
2021/06/16 01:50:56;;;;;;;5.60;4.65;;;;;;;14.59;83.21;97510.25;1730895;82;21000;-87
2021/06/16 01:53:24;;;;;;;5.78;4.33;;;;;;;14.60;83.97;97511.52;1695026;85;21492;-87
2021/06/16 01:55:52;;;;;;;6.85;5.30;;;;;;;14.60;84.34;97515.52;1730941;83;21382;-87
2021/06/16 01:58:20;;;;;;;8.30;5.03;;;;;;;14.61;83.21;97518.56;1731141;82;21378;-86
2021/06/16 02:00:50;;;;;;;5.42;4.58;;;;;;;14.61;83.11;97522.56;1731135;82;21485;-87
2021/06/16 02:03:17;;;;;;;6.00;4.33;;;;;;;14.60;82.91;97527.51;1730948;82;21020;-87
2021/06/16 02:05:44;;;;;;;6.75;4.80;;;;;;;14.61;82.91;97517.69;1731046;83;21416;-88
2021/06/16 02:08:15;;;;;;;7.40;5.33;;;;;;;14.60;83.18;97519.51;1695017;85;21025;-87
2021/06/16 02:10:47;;;;;;;5.30;4.55;;;;;;;14.52;83.10;97523.05;1730914;82;21010;-88
2021/06/16 02:13:18;;;;;;;8.48;4.87;;;;;;;14.50;82.67;97520.95;1730560;82;21513;-88
2021/06/16 02:16:14;;;;;;;7.30;5.53;;;;;;;14.42;82.47;97521.36;1730716;82;21029;-88
2021/06/16 02:18:49;;;;;;;7.17;5.30;;;;;;;14.37;82.36;97526.91;1689008;84;21026;-88
2021/06/16 02:21:16;;;;;;;7.10;5.40;;;;;;;14.27;82.10;97521.69;1684605;85;21002;-87
2021/06/16 02:23:44;;;;;;;6.33;5.10;;;;;;;14.19;82.31;97519.42;1686763;85;21064;-87
2021/06/16 02:26:13;;;;;;;9.38;5.90;;;;;;;14.13;82.52;97531.73;1669704;85;20994;-87
2021/06/16 02:28:41;;;;;;;8.00;5.40;;;;;;;14.06;82.71;97529.86;1682363;85;21454;-88
2021/06/16 02:31:08;;;;;;;8.08;6.12;;;;;;;14.03;82.58;97537.99;1682899;85;20974;-87
2021/06/16 02:33:35;;;;;;;6.72;5.15;;;;;;;13.99;82.77;97539.95;1682759;85;21025;-88
2021/06/16 02:36:03;;;;;;;6.47;5.50;;;;;;;13.94;83.35;97542.00;1682354;85;21021;-87
2021/06/16 02:38:33;;;;;;;6.72;5.55;;;;;;;13.93;83.72;97542.95;1682869;85;21395;-88
2021/06/16 02:41:05;;;;;;;11.40;6.22;;;;;;;13.90;84.52;97542.24;1683001;85;21383;-88
2021/06/16 02:43:34;;;;;;;9.45;6.37;;;;;;;13.86;86.77;97539.72;1682611;85;21037;-87
2021/06/16 02:46:02;;;;;;;8.70;5.47;;;;;;;13.85;84.76;97544.66;1674303;85;21006;-87
2021/06/16 02:48:29;;;;;;;14.85;9.18;;;;;;;13.84;86.84;97546.06;1669144;86;21080;-87
2021/06/16 02:50:57;;;;;;;8.25;6.00;;;;;;;13.81;84.91;97548.88;1669086;85;20985;-87
2021/06/16 02:53:26;;;;;;;9.05;6.28;;;;;;;13.80;84.43;97542.70;1669102;86;21055;-88
2021/06/16 02:55:58;;;;;;;8.15;5.70;;;;;;;13.75;84.26;97552.73;1676566;85;21110;-87
2021/06/16 02:58:25;;;;;;;8.90;5.80;;;;;;;13.74;84.12;97560.30;1682135;85;21498;-87
2021/06/16 03:00:57;;;;;;;10.43;6.45;;;;;;;13.75;84.15;97565.17;1682817;85;21042;-86
2021/06/16 03:03:26;;;;;;;9.73;6.42;;;;;;;13.75;84.17;97570.04;1682599;85;21128;-86
2021/06/16 03:05:55;;;;;;;9.73;6.53;;;;;;;13.77;84.32;97584.13;1675257;85;21088;-87
2021/06/16 03:08:23;;;;;;;7.78;6.17;;;;;;;13.78;84.12;97575.19;1669011;86;21064;-87
2021/06/16 03:10:51;;;;;;;9.55;6.87;;;;;;;13.80;84.21;97565.80;1668899;86;21029;-86
2021/06/16 03:13:18;;;;;;;7.47;5.90;;;;;;;13.79;84.92;97579.58;1669160;86;21471;-86
2021/06/16 03:15:47;;;;;;;8.85;5.85;;;;;;;13.80;87.82;97581.78;1669371;85;20977;-86
2021/06/16 03:18:16;;;;;;;6.22;5.47;;;;;;;13.83;88.12;97577.64;1677271;84;21104;-86
2021/06/16 03:20:43;;;;;;;7.05;5.75;;;;;;;13.83;86.36;97578.48;1698032;84;21516;-86
2021/06/16 03:23:11;;;;;;;7.03;5.37;;;;;;;13.88;86.41;97580.06;1698028;84;21542;-86
2021/06/16 03:25:39;;;;;;;9.58;5.25;;;;;;;13.97;86.25;97581.81;1669367;86;21040;-86
2021/06/16 03:28:07;;;;;;;7.85;5.65;;;;;;;14.04;85.79;97574.34;1670149;86;21072;-86
2021/06/16 03:30:34;;;;;;;6.03;4.97;;;;;;;14.10;85.78;97570.06;1670199;86;21055;-86
2021/06/16 03:33:02;;;;;;;6.67;4.90;;;;;;;14.20;86.74;97580.26;1669889;86;21457;-86
2021/06/16 03:35:29;;;;;;;6.17;4.90;;;;;;;14.26;86.39;97585.27;1680058;84;21461;-86
2021/06/16 03:37:56;;;;;;;9.15;5.97;;;;;;;14.36;86.60;97582.52;1698094;84;21020;-86
2021/06/16 03:40:28;;;;;;;9.73;5.58;;;;;;;14.46;85.94;97588.70;1698029;84;21020;-86
2021/06/16 03:42:57;;;;;;;6.65;4.50;;;;;;;14.52;86.54;97581.25;1698010;84;21045;-86
2021/06/16 03:45:27;;;;;;;6.10;5.00;;;;;;;14.61;85.86;97573.69;1697619;84;21016;-86
2021/06/16 03:47:58;;;;;;;5.67;4.55;;;;;;;14.67;85.97;97581.84;1697874;84;21043;-86
2021/06/16 03:50:26;;;;;;;7.50;4.95;;;;;;;14.74;85.56;97585.92;1698061;84;20999;-87
2021/06/16 03:52:55;;;;;;;7.72;4.97;;;;;;;14.75;85.67;97580.98;1720735;83;21490;-86
2021/06/16 03:55:23;;;;;;;6.50;5.45;;;;;;;14.80;85.27;97588.30;1720920;83;20972;-86
2021/06/16 03:57:51;;;;;;;6.40;5.05;;;;;;;14.84;84.86;97586.31;1698422;83;21124;-86
2021/06/16 04:00:20;;;;;;;8.70;5.55;;;;;;;14.88;84.70;97585.20;1720833;83;21024;-86
2021/06/16 04:02:48;;;;;;;9.48;5.60;;;;;;;14.92;84.50;97589.44;1720789;83;21020;-86
2021/06/16 04:05:17;;;;;;;8.90;5.35;;;;;;;14.95;84.37;97589.26;1720879;83;20978;-86
2021/06/16 04:07:48;;;;;;;8.00;5.70;;;;;;;14.99;83.87;97582.81;1720858;83;21494;-86
2021/06/16 04:10:18;;;;;;;7.80;5.28;;;;;;;15.01;84.01;97590.28;1720908;83;21177;-86
2021/06/16 04:12:48;;;;;;;10.40;6.35;;;;;;;15.06;83.58;97582.50;1720906;83;21113;-86
2021/06/16 04:15:17;;;;;;;8.33;5.83;;;;;;;15.09;83.19;97583.19;1720709;83;20973;-86
2021/06/16 04:17:44;;;;;;;7.85;5.92;;;;;;;15.13;83.28;97583.41;1720743;83;21051;-86
2021/06/16 04:20:13;;;;;;;7.12;5.65;;;;;;;15.15;83.32;97587.30;1721725;82;21084;-86
2021/06/16 04:22:40;;;;;;;10.05;5.75;;;;;;;15.21;82.87;97588.79;1722856;83;21036;-86
2021/06/16 04:25:10;;;;;;;8.90;5.80;;;;;;;15.24;82.69;97585.96;1722813;83;20997;-86
2021/06/16 04:27:37;;;;;;;12.45;6.35;;;;;;;15.29;82.43;97594.08;1722953;83;21042;-86
2021/06/16 04:30:11;;;;;;;7.83;5.97;;;;;;;15.34;82.27;97591.17;1722901;83;21490;-85
2021/06/16 04:32:39;;;;;;;8.33;5.78;;;;;;;15.39;82.78;97593.58;1723160;83;21003;-86
2021/06/16 04:35:08;;;;;;;8.18;6.22;;;;;;;15.42;82.46;97601.42;1708363;83;21014;-87
2021/06/16 04:37:35;;;;;;;8.33;5.92;;;;;;;15.47;82.24;97601.16;1723918;83;20978;-87
2021/06/16 04:40:06;;;;;;;7.17;6.05;;;;;;;15.50;82.53;97603.66;1724778;83;21021;-87
2021/06/16 04:42:33;;;;;;;8.75;6.00;;;;;;;15.56;82.20;97600.64;1723148;83;21084;-87
2021/06/16 04:44:59;;;;;;;6.00;5.40;;;;;;;15.62;82.16;97598.98;1723150;83;21088;-87
2021/06/16 04:47:26;;;;;;;6.95;5.87;;;;;;;15.71;81.87;97605.60;1723301;83;20930;-87
2021/06/16 04:49:53;;;;;;;6.92;5.95;;;;;;;15.79;81.90;97602.48;1723058;83;21025;-87
2021/06/16 04:52:19;;;;;;;9.85;6.03;;;;;;;15.88;81.28;97601.97;1723222;83;20984;-88
2021/06/16 04:54:46;;;;;;;6.70;5.62;;;;;;;15.96;81.38;97605.56;1723131;83;21006;-87
2021/06/16 04:57:12;;;;;;;7.33;5.53;;;;;;;16.03;80.72;97608.25;1723074;83;21018;-88
2021/06/16 04:59:38;;;;;;;8.28;6.10;;;;;;;16.12;80.68;97607.34;1723276;83;21026;-88
2021/06/16 05:02:05;;;;;;;7.60;5.67;;;;;;;16.21;80.16;97605.00;1723151;83;20994;-88
2021/06/16 05:04:32;;;;;;;6.80;5.42;;;;;;;16.32;80.01;97604.34;1722996;83;21026;-88
2021/06/16 05:06:58;;;;;;;7.12;5.42;;;;;;;16.40;79.61;97602.54;1722982;83;21060;-88
2021/06/16 05:09:25;;;;;;;5.92;5.10;;;;;;;16.52;79.35;97607.63;1723124;83;21426;-83
2021/06/16 05:11:52;;;;;;;7.30;5.28;;;;;;;16.62;79.01;97609.29;1722906;83;21290;-84
2021/06/16 05:14:19;;;;;;;10.25;5.58;;;;;;;16.68;78.67;97595.53;1723450;83;21020;-85
2021/06/16 05:16:46;;;;;;;8.80;5.00;;;;;;;16.74;78.58;97595.64;1723590;83;21024;-85
2021/06/16 05:19:17;;;;;;;7.15;5.62;;;;;;;16.82;78.47;97593.33;1722706;83;21079;-82
2021/06/16 05:21:46;;;;;;;12.28;5.40;;;;;;;16.94;78.65;97589.53;1723021;82;21512;-81
2021/06/16 05:24:13;;;;;;;6.12;5.37;;;;;;;17.05;77.87;97599.58;1718174;83;21409;-82
2021/06/16 05:26:41;;;;;;;7.97;5.60;;;;;;;17.08;77.68;97589.56;1723196;83;21391;-82
2021/06/16 05:29:09;;;;;;;8.93;5.72;;;;;;;17.13;77.07;97594.16;1724952;83;21003;-81
2021/06/16 05:31:37;;;;;;;7.67;5.78;;;;;;;17.15;76.48;97586.88;1723412;83;21430;-82
2021/06/16 05:34:05;;;;;;;6.72;5.62;;;;;;;17.21;76.77;97591.45;1722965;83;21542;-82
2021/06/16 05:36:32;;;;;;;7.20;5.30;;;;;;;17.27;76.79;97599.97;1722892;83;21438;-82
2021/06/16 05:39:00;;;;;;;7.20;5.40;;;;;;;17.32;76.75;97598.34;1722850;82;21024;-82
2021/06/16 05:41:27;;;;;;;12.18;5.95;;;;;;;17.37;76.74;97596.23;1722965;83;21379;-82
2021/06/16 05:43:53;;;;;;;11.08;6.22;;;;;;;17.41;76.57;97588.36;1722915;83;21102;-82
2021/06/16 05:46:20;;;;;;;8.75;5.80;;;;;;;17.48;76.46;97594.19;1722826;83;21102;-82
2021/06/16 05:48:47;;;;;;;11.40;5.90;;;;;;;17.53;76.62;97596.09;1723032;83;21392;-82
2021/06/16 05:51:13;;;;;;;10.15;6.30;;;;;;;17.60;76.52;97598.39;1722920;83;21026;-82
2021/06/16 05:53:40;;;;;;;10.80;6.35;;;;;;;17.65;76.40;97597.11;1723008;82;21045;-82
2021/06/16 05:56:06;;;;;;;8.10;6.00;;;;;;;17.72;76.29;97591.38;1723056;83;20950;-82
2021/06/16 05:58:33;;;;;;;8.25;6.35;;;;;;;17.80;76.14;97591.70;1723117;83;20981;-82
2021/06/16 06:01:02;;;;;;;24.87;6.03;;;;;;;17.88;76.16;97591.20;1722592;83;21092;-83
2021/06/16 06:03:29;;;;;;;9.10;6.05;;;;;;;17.95;75.90;97593.88;1722954;83;21446;-83
2021/06/16 06:05:55;;;;;;;7.72;6.28;;;;;;;18.04;75.70;97591.05;1723102;83;20995;-82
2021/06/16 06:08:22;;;;;;;9.78;6.03;;;;;;;18.15;75.75;97595.23;1723041;83;21421;-82
2021/06/16 06:10:49;;;;;;;10.40;5.90;;;;;;;18.26;75.58;97591.00;1723105;83;21030;-81
2021/06/16 06:13:15;;;;;;;8.10;6.22;;;;;;;18.36;75.46;97593.43;1722795;83;21014;-82
2021/06/16 06:15:42;;;;;;;7.55;6.17;;;;;;;18.44;75.31;97591.56;1722913;83;20953;-80
2021/06/16 06:18:08;;;;;;;11.15;6.42;;;;;;;18.52;74.87;97583.82;1723045;83;21028;-81
2021/06/16 06:20:35;;;;;;;9.55;6.25;;;;;;;18.60;74.39;97588.19;1723005;83;21040;-80
2021/06/16 06:23:01;;;;;;;7.37;6.67;;;;;;;18.70;74.06;97587.55;1723246;83;20984;-81
2021/06/16 06:25:28;;;;;;;7.65;6.40;;;;;;;18.78;73.38;97582.98;1722842;82;21494;-81
2021/06/16 06:27:54;;;;;;;8.03;6.80;;;;;;;18.86;73.18;97574.76;1715604;83;20993;-82
2021/06/16 06:30:21;;;;;;;9.43;6.45;;;;;;;18.98;72.84;97577.56;1723399;83;20988;-81
2021/06/16 06:32:48;;;;;;;13.13;6.78;;;;;;;19.08;72.88;97582.69;1723358;82;21013;-82
2021/06/16 06:35:14;;;;;;;9.23;6.50;;;;;;;19.17;72.43;97580.29;1723145;83;20991;-81
2021/06/16 06:37:41;;;;;;;12.47;6.83;;;;;;;19.25;72.52;97583.30;1723579;82;21033;-81
2021/06/16 06:40:09;;;;;;;7.95;6.53;;;;;;;19.39;71.92;97581.81;1723453;83;21100;-81
2021/06/16 06:42:36;;;;;;;7.83;6.55;;;;;;;19.52;71.09;97576.91;1723216;83;21046;-80
2021/06/16 06:45:05;;;;;;;12.45;7.12;;;;;;;19.60;68.84;97573.65;1723349;83;20997;-80
2021/06/16 06:47:32;;;;;;;8.10;7.03;;;;;;;19.71;69.86;97577.73;1723488;83;21482;-80
2021/06/16 06:49:58;;;;;;;8.53;7.10;;;;;;;19.78;69.94;97577.67;1723383;82;20993;-80
2021/06/16 06:52:25;;;;;;;7.70;7.00;;;;;;;19.87;69.59;97577.47;1723358;83;21012;-80
2021/06/16 06:54:51;;;;;;;10.63;7.60;;;;;;;19.94;68.66;97581.91;1709452;83;21373;-81
2021/06/16 06:57:18;;;;;;;7.97;7.17;;;;;;;20.04;68.61;97581.61;1724430;82;20994;-83
2021/06/16 06:59:44;;;;;;;8.40;6.92;;;;;;;20.14;65.40;97576.88;1692927;84;21052;-80
2021/06/16 07:02:11;;;;;;;8.53;7.72;;;;;;;20.23;64.95;97566.77;1702311;81;20998;-82
2021/06/16 07:04:37;;;;;;;8.10;7.40;;;;;;;20.32;64.63;97561.16;1702805;83;20977;-82
2021/06/16 07:07:04;;;;;;;8.63;7.72;;;;;;;20.39;64.48;97566.94;1701578;80;21005;-79
2021/06/16 07:09:30;;;;;;;7.97;7.20;;;;;;;20.41;64.04;97567.19;1700184;80;20985;-79
2021/06/16 07:11:57;;;;;;;9.95;7.90;;;;;;;20.48;62.20;97568.92;1700502;80;21076;-80
2021/06/16 07:14:23;;;;;;;8.43;7.60;;;;;;;20.51;62.30;97560.59;1701905;80;21028;-81
2021/06/16 07:16:50;;;;;;;9.13;7.33;;;;;;;20.56;63.09;97569.67;1701158;82;21016;-80
2021/06/16 07:19:16;;;;;;;8.08;7.37;;;;;;;20.61;61.17;97570.64;1700492;84;21140;-81
2021/06/16 07:21:43;;;;;;;9.25;7.28;;;;;;;20.65;61.81;97567.61;1696734;84;21426;-81
2021/06/16 07:24:11;;;;;;;8.60;7.78;;;;;;;20.70;57.39;97561.84;1695771;84;21048;-82
2021/06/16 07:26:38;;;;;;;7.95;7.15;;;;;;;20.78;57.81;97567.50;1697001;84;21493;-81
2021/06/16 07:29:05;;;;;;;7.97;7.17;;;;;;;20.86;59.27;97562.89;1696971;84;21072;-83
2021/06/16 07:31:32;;;;;;;6.35;5.78;;;;;;;20.92;59.74;97561.05;1697321;84;21155;-81
2021/06/16 07:33:58;;;;;;;8.13;7.03;;;;;;;21.03;56.41;97560.67;1697682;84;21055;-81
2021/06/16 07:36:25;;;;;;;10.45;7.70;;;;;;;21.13;58.30;97567.55;1695853;84;21107;-80
2021/06/16 07:38:51;;;;;;;7.92;7.12;;;;;;;21.21;56.59;97567.77;1695456;84;21352;-82
2021/06/16 07:41:18;;;;;;;7.80;7.15;;;;;;;21.28;58.42;97561.40;1696035;84;21506;-81
2021/06/16 07:43:45;;;;;;;7.97;7.12;;;;;;;21.32;58.57;97565.09;1695802;84;21012;-81
2021/06/16 07:46:11;;;;;;;7.97;7.17;;;;;;;21.38;57.71;97565.57;1695755;84;21075;-81
2021/06/16 07:48:38;;;;;;;10.18;7.50;;;;;;;21.45;58.15;97563.59;1695720;84;21047;-80
2021/06/16 07:51:05;;;;;;;7.17;6.58;;;;;;;21.50;57.52;97561.86;1692208;84;21446;-84
2021/06/16 07:53:32;;;;;;;9.78;7.42;;;;;;;21.57;56.89;97572.52;1688503;84;20981;-82
2021/06/16 07:55:58;;;;;;;8.13;7.28;;;;;;;21.62;56.69;97559.52;1686049;84;21082;-76
2021/06/16 07:58:25;;;;;;;8.50;7.67;;;;;;;21.67;56.88;97563.17;1667585;86;21425;-77
2021/06/16 08:00:53;;;;;;;7.60;6.90;;;;;;;21.73;56.67;97569.46;1667730;86;21040;-81
2021/06/16 08:03:20;;;;;;;10.20;7.65;;;;;;;21.80;55.37;97571.64;1678000;83;20979;-80
2021/06/16 08:05:49;;;;;;;7.62;6.92;;;;;;;21.86;55.46;97575.17;1687998;84;21469;-76
2021/06/16 08:08:15;;;;;;;8.60;7.80;;;;;;;21.92;55.48;97573.30;1692350;84;21497;-77
2021/06/16 08:10:41;;;;;;;7.80;7.10;;;;;;;22.02;55.81;97576.95;1696004;84;21584;-77
2021/06/16 08:13:08;;;;;;;7.95;7.15;;;;;;;22.09;55.77;97578.64;1695836;84;21092;-76
2021/06/16 08:15:35;;;;;;;8.68;7.78;;;;;;;22.12;55.22;97578.39;1695973;84;21453;-77
2021/06/16 08:18:02;;;;;;;9.80;7.85;;;;;;;22.13;55.14;97571.17;1695293;84;20996;-78
2021/06/16 08:20:29;;;;;;;8.55;7.08;;;;;;;22.15;54.92;97574.09;1695285;84;21060;-76
2021/06/16 08:22:56;;;;;;;8.13;7.33;;;;;;;22.22;54.39;97575.76;1686925;84;21416;-80
2021/06/16 08:25:22;;;;;;;7.42;6.72;;;;;;;22.28;52.78;97575.27;1684220;84;20983;-78
2021/06/16 08:27:49;;;;;;;8.00;7.17;;;;;;;22.35;53.44;97578.30;1688534;84;21455;-79
2021/06/16 08:30:17;;;;;;;9.53;6.85;;;;;;;22.41;53.52;97581.82;1692286;84;20981;-79
2021/06/16 08:32:44;;;;;;;8.68;7.65;;;;;;;22.42;51.72;97580.83;1686708;84;21000;-77
2021/06/16 08:35:13;;;;;;;8.33;7.30;;;;;;;22.45;53.06;97580.22;1688931;84;21352;-77
2021/06/16 08:37:40;;;;;;;8.93;7.72;;;;;;;22.52;53.83;97580.91;1688265;84;21703;-76
2021/06/16 08:40:09;;;;;;;8.83;6.75;;;;;;;22.63;54.41;97581.86;1676210;84;20961;-77
2021/06/16 08:42:36;;;;;;;7.08;6.37;;;;;;;22.72;52.70;97590.53;1697670;84;21013;-77
2021/06/16 08:45:04;;;;;;;9.10;6.78;;;;;;;22.80;52.85;97589.34;1698104;84;21495;-78
2021/06/16 08:47:31;;;;;;;7.90;7.10;;;;;;;22.82;52.38;97587.87;1695925;84;21032;-77
2021/06/16 08:50:00;;;;;;;10.58;7.47;;;;;;;22.79;51.33;97588.99;1683598;85;21440;-80
2021/06/16 08:52:27;;;;;;;7.92;7.12;;;;;;;22.74;51.26;97586.31;1685702;84;21446;-83
2021/06/16 08:55:01;;;;;;;9.05;6.80;;;;;;;22.73;51.45;97592.23;1691022;84;21025;-76
2021/06/16 08:57:33;;;;;;;10.65;6.85;;;;;;;22.70;51.21;97585.73;1692626;84;21359;-76
2021/06/16 09:00:05;;;;;;;8.15;7.37;;;;;;;22.72;51.46;97588.30;1682529;84;20946;-76
2021/06/16 09:02:39;;;;;;;7.62;6.92;;;;;;;22.79;50.48;97592.17;1693429;84;20954;-81
2021/06/16 09:05:13;;;;;;;7.85;7.12;;;;;;;22.86;51.02;97589.31;1684270;84;20985;-82
2021/06/16 09:07:50;;;;;;;7.25;6.53;;;;;;;23.02;50.69;97590.19;1682267;84;21006;-79
2021/06/16 09:10:26;;;;;;;7.37;6.67;;;;;;;23.17;50.43;97592.02;1691341;84;20989;-80
2021/06/16 09:13:07;;;;;;;7.33;6.65;;;;;;;23.25;51.19;97586.45;1690623;84;20992;-78
2021/06/16 09:15:31;;;;;;;8.35;7.58;;;;;;;23.38;51.46;97593.87;1685028;84;20938;-80
2021/06/16 09:18:12;;;;;;;8.15;6.45;;;;;;;23.50;51.74;97593.75;1660348;85;21049;-83
2021/06/16 09:20:47;;;;;;;8.83;7.72;;;;;;;23.60;51.42;97587.39;1653775;84;21061;-81
2021/06/16 09:23:26;;;;;;;7.70;6.90;;;;;;;23.74;50.67;97587.97;1688929;84;21512;-81
2021/06/16 09:26:13;;;;;;;6.78;6.10;;;;;;;23.89;49.90;97591.14;1693278;84;20997;-79
2021/06/16 09:28:50;;;;;;;7.53;6.67;;;;;;;23.94;49.72;97588.00;1686768;84;21003;-79
2021/06/16 09:31:23;;;;;;;7.42;6.62;;;;;;;24.12;49.88;97584.13;1684446;84;21035;-78
2021/06/16 09:33:54;;;;;;;6.80;6.20;;;;;;;24.26;49.03;97591.83;1690341;84;21033;-78
2021/06/16 09:36:26;;;;;;;6.45;5.83;;;;;;;24.45;49.15;97583.34;1682385;84;21028;-79
2021/06/16 09:39:02;;;;;;;6.50;5.67;;;;;;;24.55;46.70;97591.47;1685363;84;20995;-77
2021/06/16 09:41:35;;;;;;;8.28;5.90;;;;;;;24.65;46.11;97585.54;1687270;84;20985;-78
2021/06/16 09:44:10;;;;;;;8.38;7.30;;;;;;;24.75;47.70;97579.25;1678009;84;20998;-76
2021/06/16 09:46:39;;;;;;;7.15;6.50;;;;;;;24.83;47.85;97586.16;1682258;84;21443;-78
2021/06/16 09:49:11;;;;;;;6.17;5.58;;;;;;;24.89;46.09;97588.30;1674202;84;21534;-79
2021/06/16 09:51:44;;;;;;;10.95;6.60;;;;;;;24.97;44.54;97597.55;1684842;84;21076;-78
2021/06/16 09:54:21;;;;;;;6.15;5.53;;;;;;;25.05;44.72;97591.73;1686395;84;21570;-78
2021/06/16 09:57:00;;;;;;;6.80;6.10;;;;;;;25.07;43.23;97587.52;1677601;85;20977;-78
2021/06/16 09:59:42;;;;;;;10.35;9.35;;;;;;;25.29;44.62;97587.65;1675976;85;21025;-80
2021/06/16 10:02:23;;;;;;;6.25;5.58;;;;;;;25.62;45.12;97589.95;1673847;84;20969;-78
2021/06/16 10:04:57;;;;;;;6.97;5.10;;;;;;;25.91;45.51;97589.44;1687134;84;20955;-81
2021/06/16 10:07:37;;;;;;;5.20;4.80;;;;;;;26.12;43.55;97587.79;1688593;84;21726;-77
2021/06/16 10:10:15;;;;;;;5.30;4.85;;;;;;;25.94;41.11;97592.69;1689546;84;21036;-79
2021/06/16 10:12:47;;;;;;;6.80;5.58;;;;;;;25.84;42.62;97591.91;1687742;84;20995;-79
2021/06/16 10:15:21;;;;;;;5.85;5.25;;;;;;;25.81;43.15;97589.00;1687047;84;20981;-81
2021/06/16 10:17:54;;;;;;;9.57;8.67;;;;;;;25.64;43.91;97590.67;1679642;84;20969;-77
2021/06/16 10:20:31;;;;;;;6.17;4.78;;;;;;;25.53;42.56;97598.98;1678576;84;22128;-78
2021/06/16 10:23:02;;;;;;;8.08;7.20;;;;;;;25.22;41.37;97600.11;1683067;84;20984;-77
2021/06/16 10:25:34;;;;;;;5.05;4.62;;;;;;;25.22;42.75;97597.41;1680700;85;20980;-78
2021/06/16 10:28:05;;;;;;;5.30;4.40;;;;;;;25.25;41.37;97594.37;1679222;85;20984;-76
2021/06/16 10:30:41;;;;;;;5.25;4.80;;;;;;;25.38;43.00;97593.19;1674724;85;21123;-78
2021/06/16 10:33:29;;;;;;;5.37;4.87;;;;;;;25.50;40.34;97591.14;1718553;83;21425;-78
2021/06/16 10:36:17;;;;;;;4.95;4.40;;;;;;;25.38;40.65;97588.63;1648580;86;21044;-79
2021/06/16 10:39:10;;;;;;;5.37;4.87;;;;;;;25.41;41.35;97584.77;1718951;83;20957;-78
2021/06/16 10:41:56;;;;;;;4.72;4.33;;;;;;;25.74;42.48;97582.97;1689386;85;21025;-78
2021/06/16 10:44:30;;;;;;;4.33;3.92;;;;;;;26.20;41.93;97587.02;1689029;85;21017;-77
2021/06/16 10:47:06;;;;;;;4.50;4.20;;;;;;;27.08;40.31;97582.64;1689545;85;20983;-79
2021/06/16 10:49:54;;;;;;;6.47;5.90;;;;;;;28.18;39.50;97581.00;1687744;85;20973;-78
2021/06/16 10:52:27;;;;;;;8.65;7.80;;;;;;;29.33;37.27;97578.89;1675691;85;20988;-75
2021/06/16 10:55:06;;;;;;;4.60;4.20;;;;;;;30.48;34.76;97581.20;1669093;85;21070;-75
2021/06/16 10:57:35;;;;;;;4.72;4.33;;;;;;;31.22;33.62;97581.88;1677205;85;21064;-75
2021/06/16 11:00:14;;;;;;;7.70;4.15;;;;;;;31.91;33.68;97576.78;1682977;85;21189;-75
2021/06/16 11:02:56;;;;;;;5.10;4.67;;;;;;;32.56;31.60;97565.89;1682924;85;21114;-75
2021/06/16 11:05:35;;;;;;;4.50;4.10;;;;;;;33.42;31.22;97569.45;1687297;85;21806;-75
2021/06/16 11:08:14;;;;;;;5.12;4.72;;;;;;;33.65;32.02;97561.97;1683623;85;21008;-75
2021/06/16 11:10:56;;;;;;;4.65;4.25;;;;;;;33.26;31.52;97576.14;1711599;83;21490;-75
2021/06/16 11:13:41;;;;;;;5.30;4.78;;;;;;;32.63;31.46;97579.67;1725494;82;21026;-75
2021/06/16 11:16:50;;;;;;;4.83;4.30;;;;;;;31.99;31.83;97575.31;1728581;82;21032;-75
2021/06/16 11:19:37;;;;;;;5.17;4.67;;;;;;;31.32;32.38;97581.63;1723329;83;21056;-76
2021/06/16 11:22:18;;;;;;;5.15;3.95;;;;;;;30.82;32.95;97575.30;1724888;82;21020;-76
2021/06/16 11:25:15;;;;;;;4.35;4.05;;;;;;;31.47;32.00;97567.92;1688616;85;21043;-75
2021/06/16 11:28:15;;;;;;;4.70;4.17;;;;;;;32.34;30.45;97566.41;1727452;83;20992;-80
2021/06/16 11:30:59;;;;;;;3.90;3.60;;;;;;;33.25;29.78;97557.95;1727504;82;21045;-75
2021/06/16 11:33:32;;;;;;;4.15;3.75;;;;;;;33.90;28.60;97549.92;1678427;85;21024;-74
2021/06/16 11:36:13;;;;;;;4.72;4.33;;;;;;;34.61;28.90;97555.15;1667442;85;20964;-74
2021/06/16 11:39:06;;;;;;;4.67;4.28;;;;;;;35.44;27.32;97555.67;1717856;82;21020;-75
2021/06/16 11:41:38;;;;;;;5.33;4.17;;;;;;;35.97;26.10;97546.89;1721288;83;21067;-76
2021/06/16 11:44:20;;;;;;;4.60;3.87;;;;;;;36.07;25.91;97540.88;1714492;83;21067;-75
2021/06/16 11:46:51;;;;;;;3.95;3.65;;;;;;;36.44;26.19;97539.70;1720019;83;21053;-75
2021/06/16 11:49:31;;;;;;;8.30;4.10;;;;;;;36.31;25.22;97544.80;1688247;85;21044;-75